createdAt,value
2022-08-14T00:02:27.117Z,27.40
2022-08-14T00:04:57.539Z,28.80
2022-08-14T00:07:26.430Z,28.40
2022-08-14T00:09:55.876Z,29.60
2022-08-14T00:12:48.154Z,31.10
2022-08-14T00:15:23.421Z,30.10
2022-08-14T00:17:53.813Z,29.90
2022-08-14T00:20:30.993Z,29.90
2022-08-14T00:23:12.255Z,29.20
2022-08-14T00:25:53.758Z,28.40
2022-08-14T00:28:35.658Z,28.40
2022-08-14T00:31:08.079Z,28.20
2022-08-14T00:33:52.211Z,27.70
2022-08-14T00:36:35.888Z,27.50
2022-08-14T00:39:18.372Z,27.20
2022-08-14T00:41:47.668Z,26.80
2022-08-14T00:44:21.389Z,26.90
2022-08-14T00:46:58.769Z,26.70
2022-08-14T00:49:28.644Z,27.10
2022-08-14T00:52:01.066Z,26.60
2022-08-14T00:54:29.509Z,27.20
2022-08-14T00:56:58.696Z,27.30
2022-08-14T00:59:28.642Z,27.10
2022-08-14T01:01:59.616Z,26.90
2022-08-14T01:04:51.546Z,27.60
2022-08-14T01:07:22.890Z,27.60
2022-08-14T01:09:53.130Z,29.50
2022-08-14T01:12:27.389Z,28.80
2022-08-14T01:14:59.672Z,28.00
2022-08-14T01:17:50.592Z,28.60
2022-08-14T01:20:39.654Z,27.80
2022-08-14T01:23:16.420Z,28.10
2022-08-14T01:25:52.172Z,28.10
2022-08-14T01:28:46.230Z,28.60
2022-08-14T01:31:14.405Z,29.30
2022-08-14T01:34:00.074Z,29.40
2022-08-14T01:36:39.051Z,30.10
2022-08-14T01:39:12.842Z,30.50
2022-08-14T01:41:44.096Z,29.50
2022-08-14T01:44:32.139Z,30.70
2022-08-14T01:47:16.458Z,31.70
2022-08-14T01:49:59.360Z,31.60
2022-08-14T01:52:34.480Z,32.60
2022-08-14T01:55:24.658Z,31.20
2022-08-14T01:58:01.423Z,30.60
2022-08-14T02:00:41.382Z,30.70
2022-08-14T02:03:09.775Z,29.60
2022-08-14T02:05:39.031Z,30.70
2022-08-14T02:08:10.168Z,30.90
2022-08-14T02:10:46.790Z,30.00
2022-08-14T02:13:19.722Z,30.70
2022-08-14T02:15:48.486Z,31.30
2022-08-14T02:18:18.888Z,31.70
2022-08-14T02:20:47.785Z,30.40
2022-08-14T02:23:29.145Z,32.00
2022-08-14T02:26:29.149Z,33.20
2022-08-14T02:28:58.381Z,32.20
2022-08-14T02:31:42.229Z,34.70
2022-08-14T02:34:21.991Z,33.50
2022-08-14T02:37:04.832Z,33.70
2022-08-14T02:39:37.275Z,34.10
2022-08-14T02:42:12.965Z,36.20
2022-08-14T02:44:49.327Z,35.40
2022-08-14T02:47:21.264Z,37.10
2022-08-14T02:49:56.930Z,35.50
2022-08-14T02:52:56.071Z,34.80
2022-08-14T02:55:15.669Z,35.70
2022-08-14T02:57:58.062Z,37.80
2022-08-14T03:00:33.180Z,36.40
2022-08-14T03:03:07.527Z,36.30
2022-08-14T03:05:36.923Z,37.90
2022-08-14T03:08:11.901Z,36.60
2022-08-14T03:10:48.590Z,35.30
2022-08-14T03:13:21.378Z,35.30
2022-08-14T03:15:55.639Z,34.50
2022-08-14T03:18:30.859Z,34.60
2022-08-14T03:21:03.691Z,33.70
2022-08-14T03:23:34.975Z,33.80
2022-08-14T03:26:07.889Z,33.10
2022-08-14T03:28:40.486Z,33.20
2022-08-14T03:31:13.199Z,33.40
2022-08-14T03:33:43.097Z,32.90
2022-08-14T03:37:37.769Z,33.60
2022-08-14T03:39:15.773Z,33.70
2022-08-14T03:41:51.224Z,33.10
2022-08-14T03:45:27.537Z,33.50
2022-08-14T03:47:09.354Z,33.60
2022-08-14T03:49:43.062Z,34.50
2022-08-14T03:52:28.121Z,36.60
2022-08-14T03:55:03.476Z,36.00
2022-08-14T03:57:32.941Z,34.90
2022-08-14T04:00:13.584Z,35.20
2022-08-14T04:02:46.898Z,35.10
2022-08-14T04:05:16.694Z,35.00
2022-08-14T04:07:49.838Z,35.40
2022-08-14T04:10:35.255Z,34.50
2022-08-14T04:13:05.987Z,35.10
2022-08-14T04:15:55.689Z,35.20
2022-08-14T04:18:24.637Z,35.60
2022-08-14T04:20:54.952Z,36.40
2022-08-14T04:23:32.767Z,36.90
2022-08-14T04:26:02.950Z,38.70
2022-08-14T04:29:09.037Z,41.00
2022-08-14T04:31:24.824Z,39.90
2022-08-14T04:34:20.714Z,39.80
2022-08-14T04:37:09.474Z,38.50
2022-08-14T04:39:57.888Z,39.60
2022-08-14T04:42:47.281Z,39.40
2022-08-14T04:45:21.460Z,40.90
2022-08-14T04:48:10.138Z,39.90
2022-08-14T04:50:44.441Z,39.10
2022-08-14T04:53:15.808Z,39.60
2022-08-14T04:55:49.831Z,38.90
2022-08-14T04:58:32.580Z,38.20
2022-08-14T05:01:02.662Z,38.20
2022-08-14T05:03:35.636Z,38.60
2022-08-14T05:06:37.569Z,39.20
2022-08-14T05:09:00.062Z,39.20
2022-08-14T05:11:33.464Z,39.10
2022-08-14T05:14:34.084Z,39.20
2022-08-14T05:16:53.871Z,39.00
2022-08-14T05:19:29.171Z,39.60
2022-08-14T05:22:16.737Z,39.40
2022-08-14T05:24:50.463Z,39.80
2022-08-14T05:27:19.939Z,40.10
2022-08-14T05:29:53.447Z,40.30
2022-08-14T05:32:21.825Z,40.30
2022-08-14T05:34:52.432Z,43.10
2022-08-14T05:37:20.707Z,43.50
2022-08-14T05:39:49.113Z,42.70
2022-08-14T05:42:22.046Z,46.10
2022-08-14T05:44:55.915Z,46.90
2022-08-14T05:47:33.728Z,47.60
2022-08-14T05:50:17.384Z,47.40
2022-08-14T05:52:48.107Z,46.20
2022-08-14T05:55:22.249Z,48.10
2022-08-14T05:57:54.439Z,47.70
2022-08-14T06:00:29.259Z,46.70
2022-08-14T06:03:06.813Z,48.00
2022-08-14T06:05:38.838Z,48.40
2022-08-14T06:08:08.594Z,48.30
2022-08-14T06:10:51.526Z,48.10
2022-08-14T06:13:20.515Z,48.50
2022-08-14T06:15:51.790Z,49.00
2022-08-14T06:18:21.376Z,48.80
2022-08-14T06:20:57.275Z,49.00
2022-08-14T06:23:25.576Z,49.10
2022-08-14T06:25:55.683Z,48.00
2022-08-14T06:28:28.575Z,46.50
2022-08-14T06:30:57.682Z,47.80
2022-08-14T06:35:01.091Z,46.50
2022-08-14T06:36:19.154Z,46.10
2022-08-14T06:38:50.257Z,46.50
2022-08-14T06:41:20.611Z,47.50
2022-08-14T06:43:49.447Z,47.20
2022-08-14T06:46:22.951Z,45.70
2022-08-14T06:48:54.830Z,46.60
2022-08-14T06:51:24.864Z,45.20
2022-08-14T06:54:08.483Z,45.50
2022-08-14T06:56:36.880Z,44.60
2022-08-14T06:59:06.904Z,43.90
2022-08-14T07:02:02.087Z,43.00
2022-08-14T07:04:48.099Z,42.00
2022-08-14T07:07:18.459Z,41.90
2022-08-14T07:09:50.925Z,43.10
2022-08-14T07:12:35.999Z,44.00
2022-08-14T07:15:09.563Z,44.80
2022-08-14T07:17:46.284Z,43.40
2022-08-14T07:20:31.165Z,41.40
2022-08-14T07:23:07.749Z,42.20
2022-08-14T07:25:37.718Z,43.00
2022-08-14T07:28:12.918Z,42.10
2022-08-14T07:30:51.109Z,42.30
2022-08-14T07:33:24.889Z,42.50
2022-08-14T07:35:59.489Z,41.80
2022-08-14T07:38:37.580Z,41.60
2022-08-14T07:41:14.743Z,43.00
2022-08-14T07:43:52.942Z,41.90
2022-08-14T07:46:29.585Z,40.50
2022-08-14T07:48:59.655Z,41.20
2022-08-14T07:51:34.425Z,40.00
2022-08-14T07:54:11.425Z,38.70
2022-08-14T07:56:46.669Z,38.60
2022-08-14T07:59:20.659Z,38.40
2022-08-14T08:02:19.599Z,38.00
2022-08-14T08:04:52.968Z,36.80
2022-08-14T08:07:23.815Z,36.50
2022-08-14T08:09:58.082Z,35.50
2022-08-14T08:12:30.949Z,35.60
2022-08-14T08:15:07.139Z,35.50
2022-08-14T08:17:42.766Z,36.00
2022-08-14T08:20:27.194Z,34.50
2022-08-14T08:23:00.424Z,32.90
2022-08-14T08:25:40.042Z,33.70
2022-08-14T08:28:21.819Z,33.60
2022-08-14T08:30:56.323Z,32.90
2022-08-14T08:33:32.287Z,33.70
2022-08-14T08:36:08.225Z,32.30
2022-08-14T08:39:18.585Z,32.70
2022-08-14T08:41:42.268Z,30.40
2022-08-14T08:44:31.173Z,31.10
2022-08-14T08:47:01.727Z,30.90
2022-08-14T08:49:42.287Z,31.60
2022-08-14T08:52:24.344Z,30.50
2022-08-14T08:54:57.327Z,30.00
2022-08-14T08:57:28.344Z,28.80
2022-08-14T08:59:58.876Z,28.60
2022-08-14T09:02:27.973Z,28.70
2022-08-14T09:05:03.951Z,28.50
2022-08-14T09:07:33.068Z,28.90
2022-08-14T09:10:01.812Z,27.90
2022-08-14T09:12:35.159Z,26.70
2022-08-14T09:15:09.030Z,27.10
2022-08-14T09:17:41.325Z,26.30
2022-08-14T09:20:12.016Z,26.90
2022-08-14T09:22:47.740Z,25.50
2022-08-14T09:25:19.583Z,25.60
2022-08-14T09:27:49.887Z,26.60
2022-08-14T09:30:33.020Z,24.80
2022-08-14T09:33:56.061Z,24.90
2022-08-14T09:36:49.240Z,23.80
2022-08-14T09:39:30.740Z,23.40
2022-08-14T09:42:32.937Z,24.70
2022-08-14T09:45:16.666Z,22.80
2022-08-14T09:47:49.078Z,21.90
2022-08-14T09:50:26.860Z,21.60
2022-08-14T09:52:58.653Z,21.60
2022-08-14T09:55:36.873Z,21.80
2022-08-14T09:58:14.782Z,21.80
2022-08-14T10:00:50.055Z,20.50
2022-08-14T10:03:33.151Z,19.90
2022-08-14T10:06:09.923Z,21.10
2022-08-14T10:08:44.354Z,19.00
2022-08-14T10:11:19.555Z,18.30
2022-08-14T10:13:55.654Z,18.50
2022-08-14T10:16:33.108Z,18.50
2022-08-14T10:19:10.281Z,19.00
2022-08-14T10:23:11.045Z,19.90
2022-08-14T10:24:36.260Z,18.50
2022-08-14T10:27:06.947Z,16.40
2022-08-14T10:29:37.709Z,17.70
2022-08-14T10:32:17.614Z,16.30
2022-08-14T10:34:52.910Z,15.50
2022-08-14T10:37:23.728Z,16.10
2022-08-14T10:40:10.613Z,16.80
2022-08-14T10:42:50.580Z,16.90
2022-08-14T10:45:21.881Z,16.50
2022-08-14T10:48:09.560Z,16.50
2022-08-14T10:50:46.334Z,14.10
2022-08-14T10:53:16.147Z,14.10
2022-08-14T10:55:45.579Z,13.70
2022-08-14T10:58:14.865Z,14.30
2022-08-14T11:00:55.499Z,14.10
2022-08-14T11:03:35.796Z,12.70
2022-08-14T11:06:19.017Z,11.70
2022-08-14T11:08:50.884Z,12.40
2022-08-14T11:11:20.923Z,14.10
2022-08-14T11:13:51.151Z,14.40
2022-08-14T11:16:19.779Z,14.10
2022-08-14T11:18:51.244Z,13.70
2022-08-14T11:21:24.012Z,14.60
2022-08-14T11:24:00.361Z,13.10
2022-08-14T11:26:30.410Z,13.50
2022-08-14T11:29:01.574Z,14.40
2022-08-14T11:31:38.550Z,14.70
2022-08-14T11:34:10.485Z,13.90
2022-08-14T11:37:07.695Z,13.90
2022-08-14T11:39:45.964Z,13.30
2022-08-14T11:42:58.860Z,13.70
2022-08-14T11:45:17.231Z,12.60
2022-08-14T11:48:13.597Z,12.30
2022-08-14T11:50:38.181Z,11.00
2022-08-14T11:53:08.706Z,10.90
2022-08-14T11:55:39.681Z,11.30
2022-08-14T11:58:11.888Z,11.70
2022-08-14T12:00:50.658Z,10.50
2022-08-14T12:03:37.702Z,12.20
2022-08-14T12:06:29.207Z,11.70
2022-08-14T12:09:00.942Z,10.60
2022-08-14T12:11:44.054Z,11.30
2022-08-14T12:14:30.604Z,11.90
2022-08-14T12:17:11.767Z,11.50
2022-08-14T12:19:51.099Z,12.40
2022-08-14T12:22:34.371Z,11.90
2022-08-14T12:25:08.461Z,10.00
2022-08-14T12:27:52.022Z,10.70
2022-08-14T12:30:39.682Z,10.70
2022-08-14T12:33:25.740Z,10.50
2022-08-14T12:36:05.385Z,10.40
2022-08-14T12:38:38.447Z,10.70
2022-08-14T12:41:20.851Z,10.10
2022-08-14T12:43:53.765Z,9.30
2022-08-14T12:46:27.250Z,9.40
2022-08-14T12:48:58.354Z,10.10
2022-08-14T12:51:28.047Z,11.00
2022-08-14T12:53:59.449Z,10.80
2022-08-14T12:56:33.467Z,10.60
2022-08-14T12:59:03.150Z,11.20
2022-08-14T13:01:59.278Z,11.70
2022-08-14T13:04:22.946Z,10.20
2022-08-14T13:06:52.031Z,11.80
2022-08-14T13:09:36.438Z,12.30
2022-08-14T13:12:31.847Z,11.00
2022-08-14T13:14:59.137Z,10.90
2022-08-14T13:17:38.126Z,11.00
2022-08-14T13:20:10.398Z,10.70
2022-08-14T13:22:42.724Z,11.00
2022-08-14T13:25:16.694Z,11.80
2022-08-14T13:27:47.773Z,11.80
2022-08-14T13:30:23.505Z,11.90
2022-08-14T13:32:53.979Z,11.60
2022-08-14T13:35:23.001Z,12.00
2022-08-14T13:37:53.731Z,12.10
2022-08-14T13:40:26.400Z,12.30
2022-08-14T13:42:57.292Z,12.30
2022-08-14T13:45:33.902Z,12.90
2022-08-14T13:48:18.482Z,13.40
2022-08-14T13:51:02.074Z,13.60
2022-08-14T13:53:35.093Z,12.60
2022-08-14T13:56:14.582Z,12.90
2022-08-14T13:58:58.857Z,13.00
2022-08-14T14:01:29.709Z,13.30
2022-08-14T14:04:00.515Z,13.50
2022-08-14T14:06:32.264Z,13.60
2022-08-14T14:09:03.524Z,13.30
2022-08-14T14:11:34.090Z,13.10
2022-08-14T14:14:04.981Z,13.40
2022-08-14T14:16:33.557Z,13.60
2022-08-14T14:19:09.470Z,13.90
2022-08-14T14:21:40.735Z,14.10
2022-08-14T14:24:14.773Z,14.50
2022-08-14T14:26:50.079Z,15.00
2022-08-14T14:29:24.078Z,15.70
2022-08-14T14:31:55.399Z,15.90
2022-08-14T14:34:29.396Z,16.40
2022-08-14T14:37:02.886Z,17.10
2022-08-14T14:39:37.657Z,18.20
2022-08-14T14:42:13.679Z,18.90
2022-08-14T14:44:53.008Z,18.90
2022-08-14T14:47:25.703Z,19.30
2022-08-14T14:49:55.721Z,19.90
2022-08-14T14:52:26.866Z,19.00
2022-08-14T14:54:57.701Z,17.50
2022-08-14T14:57:34.883Z,17.20
2022-08-14T15:00:06.872Z,16.80
2022-08-14T15:02:41.326Z,16.60
2022-08-14T15:05:11.451Z,16.30
2022-08-14T15:07:41.457Z,16.40
2022-08-14T15:10:27.363Z,16.60
2022-08-14T15:13:04.240Z,16.70
2022-08-14T15:15:37.250Z,16.50
2022-08-14T15:18:36.714Z,16.80
2022-08-14T15:20:57.501Z,16.70
2022-08-14T15:23:43.736Z,17.20
2022-08-14T15:26:23.328Z,17.30
2022-08-14T15:29:03.070Z,16.90
2022-08-14T15:31:34.698Z,16.90
2022-08-14T15:34:45.698Z,17.40
2022-08-14T15:37:02.506Z,17.60
2022-08-14T15:39:35.811Z,17.60
2022-08-14T15:42:14.861Z,17.60
2022-08-14T15:44:58.587Z,17.40
2022-08-14T15:47:31.706Z,17.60
2022-08-14T15:50:04.414Z,18.60
2022-08-14T15:52:37.425Z,19.00
2022-08-14T15:55:08.432Z,19.20
2022-08-14T15:57:37.327Z,18.90
2022-08-14T16:00:40.486Z,18.70
2022-08-14T16:03:16.487Z,19.10
2022-08-14T16:05:46.189Z,19.10
2022-08-14T16:08:24.308Z,19.10
2022-08-14T16:10:57.273Z,19.20
2022-08-14T16:13:41.183Z,19.70
2022-08-14T16:16:47.586Z,19.90
2022-08-14T16:19:10.131Z,19.50
2022-08-14T16:22:02.006Z,19.60
2022-08-14T16:24:33.379Z,20.00
2022-08-14T16:27:03.422Z,20.00
2022-08-14T16:29:36.071Z,20.00
2022-08-14T16:32:32.545Z,20.00
2022-08-14T16:34:55.890Z,20.00
2022-08-14T16:37:30.400Z,20.00
2022-08-14T16:40:00.795Z,20.20
2022-08-14T16:43:03.337Z,20.20
2022-08-14T16:45:24.932Z,20.60
2022-08-14T16:47:55.184Z,21.00
2022-08-14T16:50:43.481Z,21.20
2022-08-14T16:53:17.753Z,21.50
2022-08-14T16:55:53.166Z,21.60
2022-08-14T16:58:27.764Z,22.00
2022-08-14T17:01:24.606Z,21.70
2022-08-14T17:04:00.979Z,21.10
2022-08-14T17:06:48.408Z,21.00
2022-08-14T17:09:32.126Z,20.90
2022-08-14T17:12:07.427Z,21.20
2022-08-14T17:15:01.637Z,21.30
2022-08-14T17:17:44.848Z,21.30
2022-08-14T17:20:44.419Z,21.90
2022-08-14T17:23:13.754Z,21.50
2022-08-14T17:28:51.256Z,21.30
2022-08-14T17:31:19.363Z,21.50
2022-08-14T17:33:52.438Z,21.70
2022-08-14T17:36:25.152Z,21.80
2022-08-14T17:39:06.886Z,22.40
2022-08-14T17:41:38.682Z,22.50
2022-08-14T17:44:34.048Z,22.50
2022-08-14T17:47:11.144Z,22.60
2022-08-14T17:49:47.117Z,22.60
2022-08-14T17:52:34.904Z,23.10
2022-08-14T17:55:06.492Z,23.40
2022-08-14T17:57:41.107Z,24.60
2022-08-14T18:00:13.096Z,24.80
2022-08-14T18:02:51.108Z,24.60
2022-08-14T18:05:22.961Z,24.80
2022-08-14T18:08:31.165Z,24.70
2022-08-14T18:10:55.061Z,24.90
2022-08-14T18:13:49.829Z,25.10
2022-08-14T18:16:19.743Z,25.20
2022-08-14T18:18:51.809Z,25.20
2022-08-14T18:21:41.265Z,25.40
2022-08-14T18:24:20.067Z,25.40
2022-08-14T18:27:06.866Z,25.40
2022-08-14T18:29:44.724Z,25.60
2022-08-14T18:32:47.645Z,26.00
2022-08-14T18:35:45.707Z,27.00
2022-08-14T18:38:26.137Z,27.60
2022-08-14T18:41:36.572Z,28.10
2022-08-14T18:44:10.574Z,28.40
2022-08-14T18:47:21.252Z,29.10
2022-08-14T18:50:27.795Z,29.90
2022-08-14T18:53:08.947Z,30.60
2022-08-14T18:55:53.176Z,30.60
2022-08-14T18:58:33.995Z,30.70
2022-08-14T19:01:04.701Z,30.90
2022-08-14T19:03:59.260Z,30.80
2022-08-14T19:06:56.328Z,30.70
2022-08-14T19:09:54.485Z,30.80
2022-08-14T19:13:05.311Z,30.60
2022-08-14T19:15:43.953Z,30.30
2022-08-14T19:18:25.953Z,29.70
2022-08-14T19:20:58.439Z,29.90
2022-08-14T19:23:43.929Z,30.10
2022-08-14T19:26:37.519Z,30.40
2022-08-14T19:29:25.606Z,30.20
2022-08-14T19:31:58.989Z,30.20
2022-08-14T19:34:40.458Z,30.30
2022-08-14T19:37:52.382Z,29.70
2022-08-14T19:40:33.967Z,28.70
2022-08-14T19:43:06.655Z,28.50
2022-08-14T19:45:38.872Z,28.20
2022-08-14T19:48:15.639Z,27.60
2022-08-14T19:50:46.884Z,27.60
2022-08-14T19:53:18.450Z,27.70
2022-08-14T19:56:01.446Z,27.70
2022-08-14T19:58:54.413Z,27.70
2022-08-14T20:01:36.588Z,27.70
2022-08-14T20:04:22.837Z,28.00
2022-08-14T20:07:04.307Z,28.10
2022-08-14T20:11:11.457Z,28.20
2022-08-14T20:12:35.266Z,28.20
2022-08-14T20:15:18.037Z,28.60
2022-08-14T20:17:52.560Z,28.50
2022-08-14T20:20:31.804Z,28.70
2022-08-14T20:23:11.438Z,28.70
2022-08-14T20:25:45.482Z,29.00
2022-08-14T20:28:35.391Z,29.30
2022-08-14T20:31:17.652Z,29.70
2022-08-14T20:34:06.631Z,29.90
2022-08-14T20:36:39.978Z,30.20
2022-08-14T20:39:15.689Z,30.20
2022-08-14T20:41:51.127Z,30.30
2022-08-14T20:44:40.957Z,30.40
2022-08-14T20:47:16.253Z,30.40
2022-08-14T20:49:45.219Z,30.40
2022-08-14T20:52:19.813Z,30.50
2022-08-14T20:54:51.448Z,30.50
2022-08-14T20:57:21.623Z,31.20
2022-08-14T20:59:53.530Z,30.60
2022-08-14T21:02:50.018Z,30.70
2022-08-14T21:05:33.949Z,30.70
2022-08-14T21:08:09.639Z,30.90
2022-08-14T21:10:51.217Z,31.10
2022-08-14T21:13:29.101Z,31.20
2022-08-14T21:16:35.672Z,31.00
2022-08-14T21:19:00.114Z,31.10
2022-08-14T21:21:41.135Z,31.30
2022-08-14T21:24:38.716Z,31.40
2022-08-14T21:27:13.241Z,31.70
2022-08-14T21:29:55.335Z,31.90
2022-08-14T21:32:36.463Z,32.00
2022-08-14T21:35:17.669Z,32.10
2022-08-14T21:37:47.659Z,32.10
2022-08-14T21:40:40.752Z,32.40
2022-08-14T21:43:17.459Z,32.40
2022-08-14T21:45:53.338Z,32.60
2022-08-14T21:48:25.426Z,32.70
2022-08-14T21:51:02.007Z,32.70
2022-08-14T21:53:59.380Z,32.90
2022-08-14T21:56:38.617Z,33.00
2022-08-14T21:59:17.849Z,33.00
2022-08-14T22:02:01.832Z,33.20
2022-08-14T22:04:40.723Z,33.20
2022-08-14T22:07:17.389Z,33.20
2022-08-14T22:09:55.125Z,33.30
2022-08-14T22:12:58.505Z,33.40
2022-08-14T22:15:15.353Z,33.80
2022-08-14T22:17:44.759Z,33.80
2022-08-14T22:20:21.555Z,33.80
2022-08-14T22:22:55.932Z,33.70
2022-08-14T22:25:33.317Z,33.70
2022-08-14T22:28:04.306Z,33.60
2022-08-14T22:30:32.583Z,33.50
2022-08-14T22:33:01.260Z,33.50
2022-08-14T22:35:29.997Z,33.30
2022-08-14T22:38:34.593Z,33.40
2022-08-14T22:41:06.734Z,33.30
2022-08-14T22:43:39.238Z,33.30
2022-08-14T22:46:15.060Z,33.40
2022-08-14T22:48:45.251Z,33.40
2022-08-14T22:51:14.883Z,33.60
2022-08-14T22:53:46.239Z,33.50
2022-08-14T22:56:21.507Z,33.70
2022-08-14T22:58:53.651Z,34.30
2022-08-14T23:01:56.059Z,34.80
2022-08-14T23:04:35.498Z,36.10
2022-08-14T23:07:05.286Z,36.40
2022-08-14T23:09:38.240Z,36.80
2022-08-14T23:12:28.303Z,37.50
2022-08-14T23:14:58.014Z,37.40
2022-08-14T23:17:27.620Z,37.30
2022-08-14T23:20:19.173Z,37.50
2022-08-14T23:22:50.474Z,38.00
2022-08-14T23:25:56.882Z,38.50
2022-08-14T23:28:34.041Z,38.60
2022-08-14T23:31:08.099Z,38.80
2022-08-14T23:33:42.003Z,40.10
2022-08-14T23:36:31.501Z,42.50
2022-08-14T23:39:02.122Z,42.40
2022-08-14T23:41:46.314Z,43.90
2022-08-14T23:44:21.796Z,43.70
2022-08-14T23:46:52.764Z,44.50
2022-08-14T23:49:25.540Z,44.70
2022-08-14T23:52:50.215Z,45.00
2022-08-14T23:54:49.296Z,44.80
2022-08-14T23:57:19.772Z,44.90
2022-08-14T23:59:54.769Z,45.70
